Cool Ridge, WV (25825)

11:04 PM EST on January 16, 2017 (GMT -0500)
Cool Ridge | | Change Station

Elev 2965 ft 37.66 °N, 81.09 °W | Updated 0 second ago

Overcast
Overcast
46.9 °F
Feels Like 47 °F
N
1.0
Wind Variable Wind from ESE
Gusts 1.0 mph

Today
High -- | Low -- °F
--% Chance of Precip.
Yesterday
High -- | Low -- °F
Precip. -- in
Pressure 30.20 in
Visibility 10.0 miles
Clouds Mostly Cloudy 6000 ft
Overcast 8000 ft
Windchill 47 °F
Dew Point 47 °F
Humidity 99%
Rainfall 0.03 in
Snow Depth Not available.
7:37 AM 5:31 PM
Waning Gibbous, 76% visible
METAR KBKW 170351Z AUTO 13007KT 10SM BKN060 OVC080 10/08 A3020 RMK AO2 SLP225 T01000078
Pressure 30.20 in
Visibility 10.0 miles
Clouds Mostly Cloudy 6000 ft
Overcast 8000 ft
Windchill 47 °F
Dew Point 47 °F
Humidity 99%
Rainfall 0.03 in
Snow Depth Not available.
7:37 AM 5:31 PM
Waning Gibbous, 76% visible
METAR KBKW 170351Z AUTO 13007KT 10SM BKN060 OVC080 10/08 A3020 RMK AO2 SLP225 T01000078

Get Your Daily Forecast Email!

Thanks for signing up!

Be on the lookout for a verification email in your inbox.

You'll start receiving the daily forecast at 8 AM.

×

10-Day Weather Forecast

Almanac

Astronomy

Jan. 16, 2017 Rise Set
Actual Time
Civil Twilight
Nautical Twilight
Astronomical Twilight
Moon
Length of Visible Light
Length of Day
Tomorrow will be .
, % of the Moon is Illuminated

Today's Extremes

State Highs State Lows

Community

WunderPhotos

Upload Photos

1,962,540 photos uploaded!

WunderBlog® & News

Nearby

Air Quality

  Air Quality AQ Index Pollutant
Not available.

Snow Depth

Station Depth Elevation

Earthquake Activity

City Distance Mag. Time & Date
Minimum magnitude displayed is 2.5.

Coastal Water Temperatures

Place Temperature

Stations

Nearby Weather Stations

Station Location Temp. Windchill Dew Point Humidity Wind Precip. Elev Updated Type
                   

Watches & Warnings

There are currently no watches in effect.